Werte bis 5 Uhr SommerzeitDiagramme Wasenberg: Tagesdaten MonatsdatenCSV-Datei: Wasenberg21.csv

Wetterdaten 2021 Station: Wasenberg
Temperaturen in °C relative Nieder- Global- Wind Wind Wind- Sonnen-
Datum Boden Boden Luft Luft Luft Luft Feuchte schlag strahlung max richtung schein
20 cm 5 cm 20 cm 2 m 2 m max 2 m min % mm W/m2*d m/s m/s ° h

28.10.2021 10,1 9,6 2,8 4,9 8,0 3,1 100 0,0 0 2,1 5,1 --- ---
27.10.2021 9,8 9,6 9,7 10,3 15,2 6,5 97 0,0 1423 2,7 6,6 --- 4,7
26.10.2021 9,3 8,9 9,8 10,5 15,2 6,4 93 0,0 1670 3,0 7,6 --- 6,1
25.10.2021 9,0 7,8 4,5 5,5 14,8 -1,2 93 0,1 2525 2,3 7,3 --- 6,6
24.10.2021 9,4 8,1 3,1 4,1 14,3 -2,0 87 0,1 2717 2,1 5,1 --- 7,1
23.10.2021 10,1 9,1 4,1 5,1 12,6 0,4 93 0,2 2187 2,5 5,9 --- 5,4
22.10.2021 10,7 9,7 5,8 6,4 9,9 3,4 92 3,2 1708 4,3 12,3 --- 4,8
21.10.2021 11,5 11,2 9,8 10,6 15,5 4,6 91 8,2 1058 6,3 22,2 --- 3,4
20.10.2021 11,0 10,8 12,6 13,8 17,3 10,2 96 1,8 1286 4,5 13,9 --- 3,7
19.10.2021 10,5 9,9 9,1 9,6 13,0 4,0 100 1,2 499 2,7 7,8 --- 0,1
18.10.2021 10,4 9,4 5,5 5,7 11,6 -0,3 99 0,0 2337 2,7 6,3 --- 7,2
17.10.2021 10,7 9,7 6,3 6,6 15,5 0,6 90 0,0 2769 2,4 5,1 --- 7,0
16.10.2021 11,1 10,1 4,5 4,7 14,8 0,4 94 0,2 2276 2,2 5,1 --- 5,5
15.10.2021 11,6 11,1 7,9 8,4 12,6 2,2 99 0,0 1157 3,0 8,6 --- 3,1
14.10.2021 11,5 11,0 9,7 9,6 12,1 8,1 100 0,8 999 3,2 8,2 --- 2,9
13.10.2021 11,3 10,5 7,5 7,4 13,2 2,4 97 1,1 2042 2,6 8,1 --- 6,5
12.10.2021 11,6 10,9 8,0 8,2 12,9 2,2 99 3,6 1297 3,0 9,5 --- 4,1
11.10.2021 11,5 10,4 6,7 7,1 13,9 0,8 96 0,1 1394 2,3 6,7 --- 4,7
10.10.2021 11,9 10,7 4,8 5,3 16,4 -0,3 89 0,1 3082 2,3 5,1 --- 7,8
09.10.2021 12,7 11,9 8,0 8,7 16,5 3,5 87 0,1 3611 2,4 7,3 --- 8,3
08.10.2021 13,0 12,2 9,1 9,3 16,1 5,0 96 0,1 2150 2,7 5,6 --- 7,1
07.10.2021 13,4 12,9 10,6 10,9 16,8 5,8 93 0,0 2174 2,4 7,0 --- 6,8
06.10.2021 13,5 13,0 10,8 11,0 14,3 9,5 95 0,0 2297 4,3 10,6 --- 7,0
05.10.2021 13,6 13,1 11,2 11,3 15,3 8,7 97 7,1 1635 3,2 8,8 --- 6,2
04.10.2021 14,0 13,7 11,1 11,6 15,1 7,7 96 0,0 1432 2,4 7,6 --- 5,7
03.10.2021 13,9 13,9 15,8 17,8 21,7 12,4 75 1,3 799 3,9 17,1 --- 3,0
02.10.2021 13,4 13,0 13,2 14,4 19,7 9,9 83 0,0 2446 3,0 10,2 --- 6,7
01.10.2021 13,4 12,5 9,7 11,1 19,0 4,3 81 0,0 3790 2,7 8,6 --- 8,3
30.09.2021 13,8 12,9 9,2 9,9 15,6 4,7 86 0,0 3237 3,1 8,4 --- 7,7
29.09.2021 14,5 13,8 10,1 10,7 17,9 6,5 93 5,5 2759 3,5 17,4 --- 7,2
28.09.2021 15,1 14,8 12,0 12,6 18,8 8,2 89 0,2 3266 2,2 5,1 --- 8,1
27.09.2021 15,1 15,3 16,2 16,8 21,0 11,7 95 0,6 2274 3,0 9,3 --- 6,5
26.09.2021 14,7 14,6 16,0 16,6 24,7 10,1 93 0,9 2667 1,7 7,7 --- 6,0
25.09.2021 14,5 14,4 13,7 14,8 23,8 7,7 86 0,0 4138 1,9 6,9 --- 8,5
24.09.2021 14,4 14,4 15,7 16,3 19,8 11,0 90 0,0 1681 3,0 8,5 --- 5,5
23.09.2021 13,9 13,2 13,0 14,0 22,3 5,1 78 0,0 4158 3,2 10,3 --- 8,2
22.09.2021 14,0 13,3 10,5 11,0 19,9 4,1 89 0,0 3670 2,1 6,1 --- 9,0
21.09.2021 14,4 13,5 8,8 9,2 17,8 2,0 86 0,0 3174 2,3 7,2 --- 7,7
20.09.2021 15,1 14,5 10,1 10,5 15,5 6,1 83 0,0 2184 2,1 5,1 --- 6,9
19.09.2021 15,6 15,0 11,7 12,2 14,4 9,6 88 0,0 1462 2,2 5,3 --- 7,0
18.09.2021 15,9 15,6 13,6 13,9 20,3 9,5 89 0,0 3542 2,2 6,4 --- 8,0
17.09.2021 16,1 15,7 13,1 13,7 19,3 8,3 93 0,0 2464 2,3 5,9 --- 7,4
16.09.2021 16,7 16,8 15,5 15,9 20,0 10,6 91 0,0 2476 2,5 7,5 --- 6,1
15.09.2021 16,5 16,8 17,8 18,2 21,5 14,9 99 1,1 1483 2,9 8,3 --- 5,5
14.09.2021 16,2 16,1 16,5 17,1 26,6 8,9 87 0,0 4282 2,2 6,0 --- 8,0
13.09.2021 16,4 16,2 14,0 14,5 22,0 7,7 87 0,0 4322 2,1 5,3 --- 9,6
12.09.2021 16,8 16,9 16,8 17,1 24,4 11,5 86 0,0 4105 2,6 7,4 --- 8,7
11.09.2021 16,8 17,2 18,0 18,4 24,3 13,5 91 0,7 3309 2,7 8,3 --- 8,2
10.09.2021 16,5 17,0 19,1 19,4 24,6 15,6 93 2,0 2740 2,7 7,5 --- 7,2
09.09.2021 15,9 16,0 18,0 18,3 28,0 8,9 83 0,0 4728 2,3 10,6 --- 8,4
08.09.2021 15,8 15,8 15,8 16,9 26,9 9,3 81 0,0 4847 2,8 5,1 --- 8,9
07.09.2021 15,8 16,0 15,9 16,6 25,1 9,8 82 0,0 4516 2,1 5,3 --- 9,7
06.09.2021 15,7 15,7 15,6 16,0 27,5 7,7 82 0,0 4688 2,0 5,9 --- 8,4
05.09.2021 15,7 15,7 14,1 14,5 23,9 6,7 87 0,0 5001 1,9 5,8 --- 9,7
04.09.2021 15,7 15,7 14,6 14,5 22,9 8,0 91 0,1 4640 2,4 6,8 --- 9,6
03.09.2021 15,6 15,7 15,4 15,6 26,1 8,0 83 0,1 5365 2,2 5,1 --- 10,1
02.09.2021 15,3 15,2 13,8 13,8 23,2 6,4 87 0,0 5345 1,5 5,1 --- 10,3
01.09.2021 15,5 15,3 12,3 12,7 19,1 7,5 91 0,0 3244 2,3 5,1 --- 9,3
31.08.2021 15,8 15,7 14,8 15,1 20,7 9,7 90 0,0 3068 2,8 8,3 --- 9,5
30.08.2021 15,8 15,7 15,4 15,4 18,1 13,5 98 1,2 1787 4,2 10,1 --- 6,4
29.08.2021 15,8 15,7 14,5 14,4 17,1 12,9 99 13,7 1661 3,0 8,1 --- 5,2
28.08.2021 15,8 15,5 14,0 13,6 19,1 8,9 91 5,7 3145 2,2 7,6 --- 8,6
27.08.2021 16,0 15,7 13,5 13,4 19,3 9,9 94 1,2 2617 2,9 8,9 --- 8,2
26.08.2021 16,3 16,2 15,4 15,1 21,6 11,1 87 0,5 3302 2,7 9,8 --- 7,8
25.08.2021 16,1 15,8 14,9 14,8 24,0 5,4 76 0,0 5136 2,3 5,1 --- 8,7
24.08.2021 16,4 16,0 12,9 13,3 20,6 5,9 85 0,0 4359 1,9 7,9 --- 9,7
23.08.2021 17,1 16,4 15,6 15,3 19,7 9,0 95 0,5 2586 1,3 5,6 --- 3,0
22.08.2021 17,4 17,2 18,6 17,6 23,0 14,0 96 5,0 2751 0,8 6,1 --- 4,7
21.08.2021 17,2 17,4 19,2 18,6 27,5 11,0 80 0,0 4691 0,2 5,1 --- 9,6
20.08.2021 16,9 17,2 17,0 17,3 24,0 12,2 86 0,1 4868 1,2 6,2 --- 9,9
19.08.2021 16,7 16,8 16,8 16,9 21,6 14,6 95 0,8 2489 2,0 6,7 --- 7,0
18.08.2021 16,4 16,2 15,3 15,3 19,0 12,2 97 0,5 2555 2,1 7,0 --- 8,8
17.08.2021 16,8 16,1 12,7 13,0 17,9 10,1 91 15,0 2318 2,8 8,6 --- 6,6
16.08.2021 17,7 17,4 14,9 15,5 21,9 10,0 87 3,8 2221 2,5 9,7 --- 6,6
15.08.2021 17,9 18,0 17,6 18,6 28,0 9,4 77 0,0 5550 1,8 6,4 --- 9,9
14.08.2021 17,9 18,2 18,6 19,5 29,1 10,1 77 0,0 6227 1,7 8,1 --- 9,5
13.08.2021 17,9 18,4 19,5 20,4 30,1 12,2 81 0,0 5083 1,4 6,2 --- 9,2
12.08.2021 17,6 18,0 18,5 19,1 27,4 11,2 83 0,0 4746 1,0 7,1 --- 10,9
11.08.2021 17,3 17,8 18,1 18,0 25,5 12,6 85 0,2 5468 1,0 5,2 --- 10,5
10.08.2021 16,8 16,8 15,5 15,3 23,9 8,6 92 14,4 4943 1,8 6,0 --- 8,5
09.08.2021 16,9 16,8 15,1 15,7 22,0 9,9 86 1,6 3787 2,1 7,4 --- 9,7
08.08.2021 17,3 17,1 15,4 15,5 21,3 12,5 91 8,2 4233 2,8 11,0 --- 9,7
07.08.2021 17,5 17,5 16,8 17,1 22,4 10,2 86 9,2 3568 2,4 8,9 --- 10,7
06.08.2021 17,7 17,9 17,0 17,2 22,9 12,4 90 5,0 3687 2,1 11,5 --- 9,1
05.08.2021 17,7 18,1 17,2 16,9 23,6 12,5 87 0,3 4844 1,2 5,7 --- 10,3
04.08.2021 17,4 17,7 17,1 16,6 24,3 12,7 87 0,9 4528 1,1 5,9 --- 8,9
03.08.2021 17,3 17,2 14,4 14,2 19,2 9,5 95 5,7 2994 1,5 5,6 --- 9,7
02.08.2021 17,5 17,6 16,0 15,7 21,3 11,5 94 6,6 3937 1,5 6,9 --- 8,6
01.08.2021 17,3 17,4 17,6 17,1 24,7 10,7 79 0,0 5958 1,8 7,5 --- 11,8
31.07.2021 17,6 17,3 17,1 17,5 22,0 10,9 70 0,0 3442 2,7 9,2 --- 10,4
30.07.2021 17,5 17,6 18,4 18,3 26,7 8,5 71 0,0 6582 2,0 8,3 --- 10,6
29.07.2021 17,8 17,8 17,8 17,8 23,2 11,2 75 0,0 5455 2,6 11,8 --- 11,1
28.07.2021 18,0 18,1 17,8 17,8 23,0 12,0 88 13,5 4989 2,2 8,3 --- 9,9
27.07.2021 18,1 18,4 18,5 18,1 24,9 14,4 91 44,3 4643 1,6 8,5 --- 8,7
26.07.2021 18,1 18,5 19,2 19,2 26,4 12,6 86 10,9 4965 1,1 8,8 --- 10,0
25.07.2021 17,8 18,2 19,3 19,6 28,3 11,9 83 3,6 5549 1,2 5,8 --- 10,4
24.07.2021 17,7 17,9 18,7 19,4 27,1 12,1 87 1,1 3354 1,3 5,6 --- 9,4
23.07.2021 17,4 17,6 17,8 18,4 26,9 9,4 76 0,0 6296 0,7 5,1 --- 11,3
22.07.2021 17,4 17,6 17,1 17,8 24,7 10,4 77 0,0 4652 1,1 5,1 --- 12,1
21.07.2021 17,4 17,2 15,4 15,8 24,0 7,0 76 0,0 5392 1,1 5,7 --- 11,5
20.07.2021 17,8 17,8 15,1 15,5 22,6 8,6 77 0,0 6841 1,8 7,4 --- 11,9
19.07.2021 18,3 18,6 17,6 17,7 22,6 12,9 81 0,0 5264 1,6 7,7 --- 11,3
18.07.2021 18,2 18,6 19,4 19,7 27,2 10,9 79 0,0 7257 1,9 7,2 --- 11,4
17.07.2021 18,0 18,7 20,1 20,0 26,1 15,8 83 0,0 6643 2,4 9,0 --- 11,6
16.07.2021 17,8 18,2 18,1 18,0 22,5 14,7 95 0,1 2948 1,6 6,4 --- 8,7
15.07.2021 17,5 17,9 18,1 18,0 25,5 14,0 88 4,3 4514 1,2 7,0 --- 9,3
14.07.2021 17,8 17,9 15,8 15,8 17,2 13,0 99 4,8 1342 1,6 8,3 --- 4,0
13.07.2021 17,8 18,3 18,0 17,9 23,0 14,4 99 13,5 2277 1,9 5,1 --- 6,3
12.07.2021 17,6 18,0 18,3 18,2 26,0 11,5 83 0,1 5535 1,3 5,1 --- 11,1
11.07.2021 17,6 17,9 16,6 16,6 20,9 13,3 97 8,1 2513 0,6 5,1 --- 8,9
10.07.2021 17,4 17,8 18,4 18,2 25,1 12,6 84 0,0 5176 1,5 5,1 --- 12,4
09.07.2021 17,4 17,5 16,2 16,1 19,1 13,9 98 8,5 1955 1,3 5,6 --- 5,9
08.07.2021 17,6 17,8 17,0 16,8 24,9 12,1 92 20,2 3069 1,1 5,1 --- 7,6
07.07.2021 17,3 17,8 18,9 18,6 25,5 12,6 78 0,1 6779 0,9 5,8 --- 11,1
06.07.2021 17,2 17,5 17,0 17,7 23,1 12,9 94 12,7 2645 1,7 10,5 --- 8,6
05.07.2021 17,2 17,4 16,8 16,8 21,4 11,4 95 3,7 3023 2,0 6,5 --- 8,2
04.07.2021 17,3 17,7 17,0 17,1 25,4 13,5 92 5,6 3720 0,8 9,0 --- 7,2
03.07.2021 17,0 17,2 16,8 17,5 27,3 7,3 76 0,0 7236 1,1 5,3 --- 11,4
02.07.2021 17,3 17,4 15,6 15,5 22,2 10,2 84 4,6 5299 1,2 6,5 --- 10,9
01.07.2021 17,9 17,8 13,7 13,3 14,4 12,3 100 5,5 1140 1,7 6,5 --- 2,5
30.06.2021 18,4 18,9 17,2 16,8 21,7 14,3 91 9,1 4142 1,7 7,3 --- 10,3
29.06.2021 18,4 19,3 19,9 19,6 27,0 15,0 87 14,3 5906 1,3 7,9 --- 10,9
28.06.2021 17,9 18,7 20,8 21,9 29,7 15,0 80 0,5 4721 0,7 5,9 --- 11,1
27.06.2021 17,5 18,1 19,0 19,9 27,9 11,4 76 0,0 6600 0,6 5,1 --- 11,7
26.06.2021 17,5 17,8 17,2 17,9 26,9 9,5 77 0,0 6662 0,8 5,1 --- 11,3
25.06.2021 17,5 18,1 17,8 17,8 23,2 12,1 85 4,0 5493 1,2 5,1 --- 11,5
24.06.2021 17,6 17,9 16,8 16,8 21,8 13,3 91 0,0 3393 0,9 5,5 --- 9,7
23.06.2021 17,6 17,9 17,1 16,9 23,2 12,3 91 0,0 5001 1,1 6,0 --- 12,4
22.06.2021 18,3 18,4 15,1 14,8 20,0 12,4 92 4,0 4028 1,5 6,7 --- 8,1
21.06.2021 18,9 19,8 20,4 19,8 25,2 14,5 85 54,8 6699 2,7 11,2 --- 11,9
20.06.2021 18,5 19,8 23,2 23,3 28,3 19,0 75 3,4 6700 1,4 10,2 --- 11,9
19.06.2021 18,0 19,5 24,5 24,7 31,4 18,0 73 0,0 7342 1,3 5,3 --- 10,9
18.06.2021 17,4 18,6 23,5 24,1 33,7 14,4 72 0,0 6852 0,8 5,1 --- 11,2
17.06.2021 16,8 18,0 23,4 24,0 33,0 12,7 67 0,0 7431 0,9 6,6 --- 11,3
16.06.2021 16,2 17,2 21,7 21,8 31,0 14,0 72 0,0 6938 0,7 5,1 --- 11,6
15.06.2021 15,8 16,5 18,7 18,6 26,6 10,2 81 0,0 6358 1,8 5,6 --- 12,1
14.06.2021 15,3 15,8 17,9 17,6 27,5 6,6 71 0,0 7820 0,6 5,1 --- 11,3
13.06.2021 15,6 15,8 15,3 14,9 21,8 7,8 73 0,0 7632 0,9 5,3 --- 10,9
12.06.2021 16,1 16,8 18,3 18,2 24,5 11,2 79 0,0 4841 2,7 8,1 --- 11,7
11.06.2021 15,8 16,8 19,9 19,9 28,8 11,1 79 0,0 5847 2,5 5,1 --- 11,1
10.06.2021 15,5 16,7 18,7 18,6 26,9 13,5 85 5,5 6042 0,9 5,2 --- 11,7
09.06.2021 14,7 15,9 19,7 19,2 27,7 12,6 83 4,6 6635 0,5 6,4 --- 10,6
08.06.2021 14,1 14,9 18,4 18,3 24,0 14,0 86 0,2 5793 0,9 5,1 --- 11,6
07.06.2021 13,9 14,4 16,2 16,8 21,0 14,2 91 0,0 3325 1,4 5,4 --- 9,1
06.06.2021 14,0 14,7 15,9 16,8 19,9 15,2 95 0,2 2677 1,6 6,0 --- 9,5
05.06.2021 13,4 14,5 17,4 18,6 26,0 13,3 92 42,6 5582 1,8 6,4 --- 9,3
04.06.2021 12,9 13,9 17,7 19,2 27,8 13,5 88 1,1 5232 1,1 6,4 --- 10,0
03.06.2021 12,1 12,8 15,6 18,5 28,5 7,6 73 2,6 5602 1,4 6,5 --- 9,2
02.06.2021 11,6 12,2 14,3 17,6 26,6 7,1 66 0,0 7797 1,3 6,5 --- 11,7
01.06.2021 11,2 11,5 12,7 15,4 24,7 4,7 66 0,0 7422 0,6 5,1 --- 11,6
31.05.2021 10,9 11,2 12,3 14,4 22,8 5,1 68 0,0 7737 1,1 5,5 --- 11,5
30.05.2021 10,7 10,9 11,0 12,6 21,0 3,2 77 0,0 6899 1,2 6,9 --- 10,7
29.05.2021 10,6 10,8 11,0 11,5 17,9 4,6 82 0,0 7512 2,0 7,0 --- 12,3
28.05.2021 10,3 10,6 11,9 12,4 18,7 7,9 78 0,0 6726 1,5 7,3 --- 11,4
27.05.2021 10,2 10,1 9,3 10,0 14,0 7,9 94 1,4 2359 2,7 7,9 --- 6,9
26.05.2021 10,2 10,1 9,3 9,2 14,4 6,9 96 6,8 3483 2,1 8,6 --- 9,9
25.05.2021 10,4 10,3 8,7 8,9 13,3 7,2 93 6,1 4272 3,4 12,0 --- 10,2
24.05.2021 10,2 10,1 9,8 11,7 20,3 2,1 76 0,2 6160 2,0 10,6 --- 9,7
23.05.2021 10,5 10,3 8,6 10,3 16,9 4,3 79 0,3 5420 2,4 9,8 --- 10,5
22.05.2021 10,9 10,8 9,2 10,1 15,5 6,8 88 5,3 3234 3,5 12,2 --- 8,9
21.05.2021 11,0 11,3 11,8 13,9 18,0 10,1 60 0,0 6482 4,0 13,7 --- 11,9
20.05.2021 10,8 11,1 11,8 12,1 17,8 7,4 79 1,9 5972 1,7 7,6 --- 11,5
19.05.2021 10,5 10,6 10,1 9,9 17,9 3,9 85 0,6 5820 1,5 8,1 --- 9,8
18.05.2021 10,7 10,9 10,1 10,0 16,0 5,8 90 2,5 4393 1,9 10,3 --- 9,9
17.05.2021 10,7 10,8 10,6 10,5 15,5 5,5 94 10,5 4533 2,6 13,1 --- 9,9
16.05.2021 10,7 10,9 10,7 10,3 16,8 7,1 93 11,4 4558 2,1 11,6 --- 9,2
15.05.2021 10,7 10,8 9,8 10,3 15,9 5,8 90 2,4 4135 2,3 9,5 --- 10,0
14.05.2021 10,9 11,5 11,9 12,5 19,5 6,0 81 0,6 5129 1,7 7,9 --- 10,6
13.05.2021 10,8 11,2 11,8 12,3 18,1 7,8 86 0,2 3406 1,3 5,1 --- 9,7
12.05.2021 10,8 11,5 12,4 13,0 17,1 9,1 84 0,1 3486 1,4 6,6 --- 10,6
11.05.2021 10,6 11,4 13,3 13,6 17,2 11,0 97 1,8 1924 1,5 5,1 --- 8,0
10.05.2021 10,0 11,2 15,2 16,6 23,3 12,1 77 8,8 3801 2,1 11,0 --- 8,6
09.05.2021 8,6 9,4 15,7 17,9 27,5 4,6 59 0,0 6837 2,3 12,1 --- 11,5
08.05.2021 7,8 7,5 7,1 8,1 15,6 -2,0 67 0,0 4863 3,1 8,2 --- 10,2
07.05.2021 8,1 8,1 6,0 6,1 11,3 0,6 82 1,5 5041 2,2 8,5 --- 10,1
06.05.2021 7,9 7,8 6,2 6,2 12,0 1,9 84 3,1 3653 2,1 8,3 --- 9,1
05.05.2021 8,2 7,9 4,9 5,3 9,9 1,6 90 3,7 4055 3,1 16,3 --- 8,4
04.05.2021 8,5 8,4 8,2 9,1 12,0 4,6 73 8,0 2419 4,8 17,8 --- 7,2
03.05.2021 8,3 8,1 6,9 7,3 13,8 -1,5 64 0,0 5313 1,9 10,0 --- 10,4
02.05.2021 8,9 8,7 6,5 7,0 10,7 0,2 70 0,0 2709 2,1 8,9 --- 10,0
01.05.2021 8,9 9,2 9,1 9,2 13,5 4,2 77 0,0 3629 1,0 5,3 --- 11,4
30.04.2021 8,8 8,9 7,5 7,4 12,8 3,7 82 0,0 3546 1,3 5,1 --- 9,9
29.04.2021 8,9 9,7 10,2 10,2 16,2 3,8 80 7,3 5354 3,3 13,0 --- 10,7
28.04.2021 8,0 8,3 9,9 10,7 20,2 -1,1 60 1,2 5917 1,2 9,5 --- 9,5
27.04.2021 7,6 7,5 7,0 7,3 15,1 -0,3 55 0,0 6684 1,1 5,1 --- 10,1
26.04.2021 7,5 7,2 4,8 5,4 13,1 -2,9 62 0,0 6810 1,1 7,0 --- 10,2
25.04.2021 7,8 7,6 4,9 4,8 10,5 -0,3 76 0,0 6575 2,1 8,1 --- 10,8
24.04.2021 7,8 7,6 5,5 5,8 13,1 -1,8 79 0,0 6091 1,5 8,3 --- 11,0
23.04.2021 7,9 7,8 5,2 5,4 13,2 -1,8 79 0,0 6240 1,4 5,9 --- 11,1
22.04.2021 8,2 8,2 5,9 6,0 12,0 -0,1 72 0,0 6349 2,2 9,1 --- 10,0
21.04.2021 8,2 8,8 9,8 10,1 17,5 3,1 82 5,9 3860 1,6 7,3 --- 9,7
20.04.2021 7,3 7,7 8,5 8,6 18,8 -0,6 80 0,0 6102 0,7 7,6 --- 9,8
19.04.2021 7,0 7,6 7,3 7,5 13,6 2,5 91 0,2 3578 1,2 6,1 --- 10,5
18.04.2021 6,2 6,6 7,5 7,3 13,2 4,2 93 11,9 2730 1,0 5,5 --- 6,8
17.04.2021 5,8 5,6 5,0 5,0 9,0 -0,5 75 0,0 2281 1,5 6,7 --- 8,4
16.04.2021 5,7 5,4 4,8 4,9 9,4 0,1 73 0,0 2657 1,8 8,5 --- 8,9
15.04.2021 5,5 4,8 1,8 1,9 9,2 -4,1 85 0,1 3980 1,4 8,2 --- 9,5
14.04.2021 5,7 5,1 1,8 1,9 9,0 -3,7 84 0,0 4973 1,6 9,0 --- 8,2
13.04.2021 6,0 5,3 1,9 2,1 9,7 -3,9 81 0,1 3354 1,6 8,3 --- 9,0
12.04.2021 6,6 6,2 3,3 3,2 9,7 -1,5 86 0,9 3889 1,7 10,1 --- 9,3
11.04.2021 6,8 7,1 7,2 7,3 14,0 1,7 95 9,2 1492 2,1 8,6 --- 3,5
10.04.2021 6,2 6,5 7,2 7,1 9,0 4,7 96 13,6 1685 1,2 5,9 --- 5,9
09.04.2021 5,2 5,1 5,7 6,3 14,7 -1,8 67 0,1 4994 2,7 8,5 --- 9,6
08.04.2021 5,0 4,3 2,3 2,5 6,9 -0,7 75 1,1 2917 2,5 7,8 --- 9,8
07.04.2021 5,3 4,3 0,9 0,8 5,7 -1,8 93 1,8 1964 3,1 11,9 --- 6,6
06.04.2021 5,7 4,6 0,9 0,7 6,3 -6,4 88 3,5 4072 3,1 13,0 --- 8,6
05.04.2021 6,9 5,9 2,0 2,2 5,2 -2,0 86 5,3 2143 3,6 14,4 --- 5,0
04.04.2021 7,2 7,0 4,6 4,6 10,8 -0,3 79 0,0 4171 1,2 5,6 --- 9,7
03.04.2021 7,4 7,0 5,2 5,4 11,6 0,5 76 0,4 4729 2,5 8,9 --- 9,2
02.04.2021 8,1 7,9 6,5 6,4 12,3 2,3 76 0,0 3670 2,8 10,3 --- 7,3
01.04.2021 8,1 8,8 11,5 11,9 24,1 4,1 70 0,0 4954 2,0 10,1 --- 9,2
31.03.2021 7,6 8,1 10,7 11,8 24,0 0,4 69 0,0 5090 1,1 5,8 --- 8,8
30.03.2021 7,1 7,6 9,9 11,0 24,1 0,1 67 0,0 5135 0,9 5,1 --- 8,7
29.03.2021 6,5 7,3 11,6 12,4 20,1 4,7 56 0,0 5218 2,4 9,1 --- 9,5
28.03.2021 5,7 5,5 6,7 7,2 14,0 -1,2 72 0,0 3530 2,6 11,0 --- 8,9
27.03.2021 6,5 6,3 5,5 6,0 11,0 1,4 81 8,5 2294 3,1 13,0 --- 6,6
26.03.2021 6,1 6,9 10,1 10,2 16,2 3,9 72 0,0 4541 2,5 8,7 --- 8,8
25.03.2021 5,2 5,4 6,7 7,2 16,0 -0,9 81 0,0 3562 2,5 5,6 --- 8,6
24.03.2021 4,7 4,6 5,0 5,5 14,3 -2,7 80 0,0 4839 2,1 6,7 --- 8,8
23.03.2021 4,8 4,9 4,8 5,0 9,6 0,4 85 0,0 1913 1,4 5,1 --- 6,6
22.03.2021 4,4 4,3 4,2 4,2 7,3 2,0 90 0,3 1799 2,3 7,5 --- 6,4
21.03.2021 4,2 4,0 4,6 4,7 8,5 2,3 76 0,0 2050 3,3 10,5 --- 7,8
20.03.2021 3,7 3,1 1,6 1,2 5,9 -3,4 61 0,0 4387 1,4 5,1 --- 8,7
19.03.2021 3,9 3,3 2,0 1,9 6,6 -0,8 84 0,2 3610 2,7 10,5 --- 8,3
18.03.2021 3,8 3,0 0,6 0,5 6,2 -4,4 93 1,0 2659 0,9 5,1 --- 7,4
17.03.2021 4,5 3,8 1,3 1,5 4,4 -2,7 90 0,1 1546 1,6 6,0 --- 6,0
16.03.2021 4,7 4,4 3,8 3,9 9,0 0,6 85 0,6 2496 2,3 10,5 --- 7,1
15.03.2021 4,6 4,4 4,1 4,1 9,0 1,5 92 3,2 2393 2,7 13,5 --- 6,6
14.03.2021 4,5 4,2 3,7 3,8 7,3 1,7 92 1,9 2169 3,4 9,6 --- 6,8
13.03.2021 4,7 4,6 4,7 5,0 7,9 2,2 92 9,6 1417 5,3 17,2 --- 4,6
12.03.2021 4,8 4,8 5,7 6,1 9,5 2,5 78 4,1 2617 5,0 14,6 --- 7,1
11.03.2021 4,4 4,8 7,2 7,7 12,7 4,9 83 4,2 1868 5,3 14,2 --- 5,5
10.03.2021 3,6 3,7 4,8 4,8 8,5 1,1 86 1,3 2178 1,9 6,7 --- 6,4
09.03.2021 3,1 2,7 1,8 1,7 4,6 -1,3 97 0,8 1293 1,1 5,5 --- 5,4
08.03.2021 2,9 2,2 0,5 0,5 6,2 -2,4 94 0,0 1662 2,2 5,1 --- 5,3
07.03.2021 3,0 1,8 -1,0 -0,7 7,1 -6,6 86 0,0 4074 0,9 6,6 --- 8,8
06.03.2021 3,6 2,3 -1,1 -0,8 6,2 -6,4 82 0,0 4000 0,5 5,0 --- 8,7
05.03.2021 4,7 4,0 1,7 1,8 5,5 -2,9 85 0,5 2616 2,4 10,0 --- 8,0
04.03.2021 4,9 4,9 4,8 4,9 9,1 1,8 99 7,3 986 1,5 8,6 --- 3,3
03.03.2021 4,6 4,3 4,0 4,8 15,0 -2,4 87 0,1 2767 2,0 5,2 --- 7,7
02.03.2021 4,6 4,4 3,7 3,9 16,1 -1,2 89 0,2 3242 0,7 5,1 --- 7,6
01.03.2021 4,6 4,3 3,2 3,4 9,0 -0,3 97 0,0 2179 1,9 6,1 --- 6,5
28.02.2021 4,5 4,3 4,4 4,5 10,3 -0,4 91 0,0 3586 1,7 6,3 --- 8,2
27.02.2021 4,6 4,2 2,7 2,8 5,9 -0,7 97 0,0 1085 1,5 5,9 --- 4,0
26.02.2021 5,1 5,0 4,1 4,6 6,7 1,8 98 6,0 795 1,3 7,8 --- 2,3
25.02.2021 5,1 5,3 8,0 9,2 18,7 1,7 82 0,0 3035 2,7 6,6 --- 7,7
24.02.2021 4,7 5,2 8,8 10,0 18,5 3,3 86 0,0 2841 1,7 6,3 --- 7,5
23.02.2021 3,9 4,2 8,0 8,9 17,6 1,1 84 0,0 2564 1,5 7,3 --- 6,9
22.02.2021 3,5 3,2 4,0 4,8 14,0 -1,6 89 0,1 2627 1,3 5,1 --- 7,0
21.02.2021 3,4 3,5 6,1 7,9 17,8 0,4 78 0,0 3028 1,8 10,4 --- 7,5
20.02.2021 2,9 3,0 6,0 6,9 16,2 0,2 85 0,0 2562 2,7 6,8 --- 7,1
19.02.2021 2,4 2,7 4,9 5,5 10,2 1,0 88 0,2 2545 2,2 11,6 --- 6,5
18.02.2021 1,5 1,2 3,4 4,1 10,4 -1,4 90 0,1 1324 1,1 9,6 --- 5,3
17.02.2021 1,1 0,5 3,9 5,3 9,8 0,2 94 3,2 2050 2,5 8,1 --- 5,6
16.02.2021 1,1 0,2 2,2 3,1 8,4 -0,6 94 9,7 1964 1,4 7,2 --- 5,6
15.02.2021 1,1 0,2 -4,0 -2,7 1,2 -9,5 73 1,1 923 1,7 9,1 --- 3,1
14.02.2021 1,2 0,2 -14,0 -11,9 0,1 -21,1 83 4,0 2656 0,8 5,1 --- 6,9
13.02.2021 1,4 0,4 -13,9 -12,0 -2,6 -18,4 89 2,0 2719 1,0 6,2 --- 6,9
12.02.2021 1,6 0,6 -13,0 -11,7 -4,0 -18,8 92 0,0 2718 1,5 7,2 --- 6,9
11.02.2021 1,7 0,7 -8,1 -7,6 -2,6 -16,9 89 2,8 1831 1,2 5,3 --- 5,3
10.02.2021 2,0 0,9 -13,0 -12,7 -6,1 -20,6 93 0,0 2506 1,5 9,3 --- 6,5
09.02.2021 2,3 1,2 -13,4 -13,5 -7,1 -20,8 89 0,0 1927 0,8 5,6 --- 6,0
08.02.2021 2,5 1,3 -7,6 -8,3 -6,6 -10,4 93 0,0 1251 1,6 6,3 --- 5,0
07.02.2021 3,3 2,1 -3,8 -4,0 -0,9 -7,2 99 0,0 348 2,2 8,0 --- ---
06.02.2021 4,1 3,6 1,8 1,7 4,0 -1,3 100 4,1 309 1,7 6,8 --- ---
05.02.2021 4,2 3,7 2,8 3,0 5,4 -0,5 99 5,5 420 1,8 5,3 --- 0,1
04.02.2021 4,7 5,0 5,2 5,8 9,8 0,3 93 1,4 1530 2,3 8,5 --- 4,8
03.02.2021 3,9 4,5 8,2 8,8 10,5 7,0 98 5,9 535 3,5 12,8 --- 1,2
02.02.2021 2,7 2,7 4,6 4,9 8,5 2,3 100 3,2 409 1,9 6,3 --- 0,1
01.02.2021 2,1 1,4 0,9 0,9 2,6 -0,9 99 3,0 491 0,9 5,1 --- 0,2
31.01.2021 2,5 1,3 -1,5 -1,4 2,4 -5,0 92 0,0 2039 0,9 5,0 --- 6,1
30.01.2021 3,3 2,9 1,3 1,5 6,8 -1,3 92 2,0 771 3,0 10,9 --- 2,7
29.01.2021 2,7 2,6 4,3 4,6 9,2 0,7 97 11,9 505 2,5 12,6 --- 1,5
28.01.2021 2,3 1,8 1,5 1,5 2,6 0,7 100 16,8 157 1,4 5,8 --- ---
27.01.2021 2,2 1,2 0,0 0,2 1,2 -1,2 99 0,7 639 2,6 9,3 --- 1,4
26.01.2021 2,3 1,4 0,1 0,4 3,5 -2,0 99 0,8 916 2,2 8,9 --- 2,9
25.01.2021 2,6 1,6 -2,4 -2,0 0,6 -6,6 99 1,3 707 1,2 5,1 --- 2,7
24.01.2021 3,1 2,3 0,4 0,5 1,7 -0,8 99 5,8 464 1,9 6,2 --- 0,6
23.01.2021 3,4 2,7 1,3 1,5 3,2 -0,6 99 0,5 395 1,1 6,6 --- ---
22.01.2021 3,8 3,9 4,2 4,6 9,6 -0,5 96 5,1 543 3,0 17,7 --- 0,7
21.01.2021 3,0 3,0 6,9 7,6 10,0 4,5 75 4,7 564 4,6 15,5 --- 1,7
20.01.2021 2,4 2,0 3,7 4,5 8,1 1,4 76 0,0 1082 3,4 11,0 --- 3,6
19.01.2021 2,1 1,5 1,9 2,1 3,4 0,6 98 3,1 237 4,3 13,1 --- ---
18.01.2021 1,8 1,0 1,1 1,6 2,8 -1,6 98 0,3 578 2,6 9,5 --- 1,6
17.01.2021 1,7 0,7 -1,7 -1,8 0,3 -3,1 98 0,6 519 1,3 5,1 --- 0,3
16.01.2021 1,9 0,9 -2,0 -2,0 -0,6 -3,0 80 0,0 473 2,1 5,9 --- ---
15.01.2021 2,1 1,2 -0,9 -0,9 0,3 -3,2 96 0,0 411 1,8 5,7 --- ---
14.01.2021 2,2 1,3 -0,1 0,1 2,5 -1,1 89 0,8 572 2,4 7,7 --- 1,0
13.01.2021 2,3 1,2 0,1 0,7 3,9 -2,3 93 0,4 1108 3,1 10,2 --- 3,5
12.01.2021 2,4 1,4 0,4 0,7 2,6 -1,0 99 1,9 416 3,7 10,7 --- 0,3
11.01.2021 2,6 1,5 -2,0 -1,9 -0,1 -6,0 93 0,0 981 2,5 9,6 --- 4,3
10.01.2021 2,9 2,0 -1,0 -0,9 1,8 -5,4 95 0,0 739 0,6 5,1 --- 3,1
09.01.2021 2,9 2,1 -0,8 -0,8 1,1 -4,1 97 0,0 450 1,2 5,4 --- 0,5
08.01.2021 3,0 2,2 0,1 0,2 1,3 -1,7 100 4,0 686 1,6 5,5 --- 2,5
07.01.2021 3,1 2,2 0,1 0,2 1,0 -0,5 98 0,2 345 1,9 5,4 --- 0,1
06.01.2021 3,2 2,4 1,0 1,0 1,8 0,1 99 0,1 232 1,7 6,7 --- ---
05.01.2021 3,2 2,3 0,5 0,4 0,9 0,0 100 0,5 149 1,9 6,6 --- ---
04.01.2021 3,4 2,3 0,1 0,1 0,4 -0,3 100 0,7 109 1,9 5,1 --- ---
03.01.2021 3,7 2,7 0,7 0,7 1,4 -0,3 96 0,1 148 2,2 8,6 --- ---
02.01.2021 3,9 3,1 1,1 1,1 2,8 0,2 97 0,0 488 1,0 5,2 --- 0,8
01.01.2021 3,9 3,1 0,7 0,7 1,6 0,0 100 4,4 232 1,0 5,1 --- ---

Mittelwerte (Temperaturen, Strahlung, rel. Feuchte, Wind), Summe (Regen) für 2021
10,5 10,4 9,6 10,0 86 755 3.411 2,0

Landesbetrieb Landwirtschaft Hessen 2009

      Werte bis 5 Uhr SommerzeitCSV-Datei: Wasenberg21.csvDiagramm: Wasenberg